Time;durP1;ratioP1;P1;durP2;ratioP2;P2;SDS_P1;SDS_P2;PMS_P1;PMS_P2;Temp;Humidity;BMP_temperature;BMP_pressure;BME280_temperature;BME280_humidity;BME280_pressure;Samples;Min_cycle;Max_cycle;Signal;HPM_P1;HPM_P2
2023/05/06 00:03:34;;;;;;;;;;;22.50;39.50;;;;;;8364540;28;19917;-42
2023/05/06 00:07:35;;;;;;;;;;;22.50;39.50;;;;;;8364453;28;19921;-43
2023/05/06 00:11:35;;;;;;;;;;;22.50;39.50;;;;;;8364339;28;19924;-43
2023/05/06 00:15:36;;;;;;;;;;;22.50;39.50;;;;;;8364006;28;19913;-44
2023/05/06 00:19:37;;;;;;;;;;;22.50;39.50;;;;;;8364238;28;19966;-44
2023/05/06 00:23:37;;;;;;;;;;;22.50;39.60;;;;;;8364810;28;20385;-43
2023/05/06 00:27:38;;;;;;;;;;;22.50;39.60;;;;;;8363536;28;19963;-43
2023/05/06 00:31:39;;;;;;;;;;;22.50;39.50;;;;;;8364060;28;20004;-43
2023/05/06 00:35:39;;;;;;;;;;;22.50;39.60;;;;;;8364048;28;19921;-43
2023/05/06 00:39:40;;;;;;;;;;;22.50;39.60;;;;;;8363090;28;19917;-42
2023/05/06 00:43:40;;;;;;;;;;;22.50;39.60;;;;;;8363985;28;19917;-43
2023/05/06 00:47:42;;;;;;;;;;;22.40;39.60;;;;;;8363585;28;19921;-43
2023/05/06 00:51:42;;;;;;;;;;;22.40;39.60;;;;;;8362860;28;19931;-43
2023/05/06 00:55:43;;;;;;;;;;;22.40;39.50;;;;;;8363207;28;19913;-44
2023/05/06 00:59:43;;;;;;;;;;;22.40;39.60;;;;;;8363424;28;19917;-43
2023/05/06 01:03:44;;;;;;;;;;;22.40;39.60;;;;;;8361742;28;19916;-43
2023/05/06 01:07:44;;;;;;;;;;;22.40;39.60;;;;;;8361382;28;19927;-43
2023/05/06 01:11:48;;;;;;;;;;;22.40;39.60;;;;;;8362524;28;19921;-43
2023/05/06 01:15:53;;;;;;;;;;;22.30;39.60;;;;;;8362194;28;19948;-43
2023/05/06 01:19:57;;;;;;;;;;;22.30;39.60;;;;;;8362742;28;20370;-42
2023/05/06 01:23:57;;;;;;;;;;;22.30;39.60;;;;;;8362581;28;19923;-42
2023/05/06 01:27:58;;;;;;;;;;;22.30;39.60;;;;;;8361794;28;19916;-44
2023/05/06 01:32:10;;;;;;;;;;;22.30;39.60;;;;;;8362568;28;19924;-43
2023/05/06 01:36:17;;;;;;;;;;;22.30;39.60;;;;;;8362068;28;19924;-43
2023/05/06 01:40:18;;;;;;;;;;;22.30;39.60;;;;;;8361512;28;19924;-43
2023/05/06 01:44:20;;;;;;;;;;;22.30;39.70;;;;;;8362602;28;19963;-44
2023/05/06 01:48:23;;;;;;;;;;;22.30;39.70;;;;;;8362962;28;19917;-45
2023/05/06 01:52:24;;;;;;;;;;;22.30;39.70;;;;;;8368683;28;20429;-44
2023/05/06 01:56:25;;;;;;;;;;;22.30;39.70;;;;;;8368741;28;20330;-43
2023/05/06 02:00:26;;;;;;;;;;;22.20;39.70;;;;;;8369015;28;19932;-43
2023/05/06 02:04:26;;;;;;;;;;;22.30;39.70;;;;;;8368209;28;19913;-43
2023/05/06 02:08:27;;;;;;;;;;;22.30;39.70;;;;;;8368125;28;19920;-43
2023/05/06 02:12:27;;;;;;;;;;;22.30;39.70;;;;;;8368181;28;19913;-43
2023/05/06 02:16:28;;;;;;;;;;;22.20;39.70;;;;;;8367659;28;19944;-43
2023/05/06 02:20:28;;;;;;;;;;;22.20;39.70;;;;;;8368038;28;19917;-43
2023/05/06 02:24:29;;;;;;;;;;;22.20;39.70;;;;;;8368091;28;19916;-43
2023/05/06 02:28:29;;;;;;;;;;;22.20;39.70;;;;;;8367193;28;19995;-43
2023/05/06 02:32:29;;;;;;;;;;;22.20;39.80;;;;;;8366251;28;19963;-43
2023/05/06 02:36:31;;;;;;;;;;;22.20;39.70;;;;;;8367577;28;19913;-44
2023/05/06 02:40:31;;;;;;;;;;;22.20;39.80;;;;;;8366891;28;19947;-43
2023/05/06 02:44:32;;;;;;;;;;;22.10;39.70;;;;;;8367518;28;19974;-43
2023/05/06 02:48:32;;;;;;;;;;;22.10;39.70;;;;;;8366600;28;20373;-42
2023/05/06 02:52:33;;;;;;;;;;;22.10;39.70;;;;;;8366873;28;20373;-44
2023/05/06 02:56:34;;;;;;;;;;;22.10;39.70;;;;;;8366805;28;19959;-43
2023/05/06 03:00:35;;;;;;;;;;;22.10;39.70;;;;;;8366314;28;19917;-45
2023/05/06 03:04:35;;;;;;;;;;;22.10;39.70;;;;;;8366956;28;19917;-43
2023/05/06 03:08:36;;;;;;;;;;;22.10;39.70;;;;;;8366738;28;22301;-43
2023/05/06 03:12:36;;;;;;;;;;;22.10;39.70;;;;;;8365876;28;19913;-42
2023/05/06 03:16:36;;;;;;;;;;;22.10;39.80;;;;;;8366253;28;19948;-43
2023/05/06 03:20:37;;;;;;;;;;;22.10;39.70;;;;;;8366419;28;19917;-43
2023/05/06 03:24:37;;;;;;;;;;;22.10;39.70;;;;;;8365705;28;20251;-43
2023/05/06 03:28:39;;;;;;;;;;;22.10;39.70;;;;;;8366114;28;19920;-43
2023/05/06 03:32:40;;;;;;;;;;;22.00;39.70;;;;;;8365727;28;19919;-43
2023/05/06 03:36:40;;;;;;;;;;;22.10;39.70;;;;;;8365261;28;19917;-44
2023/05/06 03:40:41;;;;;;;;;;;22.10;39.70;;;;;;8365960;28;19959;-43
2023/05/06 03:44:41;;;;;;;;;;;22.10;39.60;;;;;;8365395;28;20003;-44
2023/05/06 03:48:41;;;;;;;;;;;22.00;39.60;;;;;;8364811;28;19995;-43
2023/05/06 03:52:42;;;;;;;;;;;22.10;39.70;;;;;;8365246;28;19916;-43
2023/05/06 03:56:42;;;;;;;;;;;22.10;39.60;;;;;;8365365;28;20358;-43
2023/05/06 04:00:43;;;;;;;;;;;22.10;39.60;;;;;;8364606;28;20020;-43
2023/05/06 04:04:43;;;;;;;;;;;22.10;39.60;;;;;;8365074;28;20358;-43
2023/05/06 04:08:44;;;;;;;;;;;22.10;39.60;;;;;;8363264;28;19924;-43
2023/05/06 04:12:44;;;;;;;;;;;22.00;39.70;;;;;;8363512;28;20425;-43
2023/05/06 04:16:45;;;;;;;;;;;22.10;39.70;;;;;;8364447;28;20280;-44
2023/05/06 04:20:46;;;;;;;;;;;22.10;39.60;;;;;;8364605;28;20366;-43
2023/05/06 04:24:47;;;;;;;;;;;22.10;39.50;;;;;;8363590;28;19999;-44
2023/05/06 04:28:47;;;;;;;;;;;22.20;39.50;;;;;;8363963;28;20377;-42
2023/05/06 04:32:48;;;;;;;;;;;22.20;39.40;;;;;;8363824;28;19926;-44
2023/05/06 04:36:48;;;;;;;;;;;22.30;39.40;;;;;;8363582;28;19923;-44
2023/05/06 04:40:49;;;;;;;;;;;22.40;39.40;;;;;;8363847;28;20019;-43
2023/05/06 04:44:49;;;;;;;;;;;22.40;39.30;;;;;;8363278;28;19986;-43
2023/05/06 04:48:49;;;;;;;;;;;22.40;39.30;;;;;;8362918;28;19928;-43
2023/05/06 04:52:50;;;;;;;;;;;22.40;39.40;;;;;;8362763;28;19920;-43
2023/05/06 04:56:51;;;;;;;;;;;22.40;39.30;;;;;;8363372;28;19913;-43
2023/05/06 05:00:51;;;;;;;;;;;22.40;39.20;;;;;;8362630;28;20303;-43
2023/05/06 05:04:52;;;;;;;;;;;22.50;39.30;;;;;;8362874;28;20310;-42
2023/05/06 05:08:52;;;;;;;;;;;22.40;39.30;;;;;;8362556;28;20003;-43
2023/05/06 05:12:53;;;;;;;;;;;22.40;39.30;;;;;;8362057;28;20312;-43
2023/05/06 05:16:53;;;;;;;;;;;22.40;39.40;;;;;;8362881;28;19913;-43
2023/05/06 05:20:54;;;;;;;;;;;22.40;39.50;;;;;;8362605;28;19933;-43
2023/05/06 05:24:54;;;;;;;;;;;22.30;39.60;;;;;;8361087;28;19921;-43
2023/05/06 05:28:55;;;;;;;;;;;22.40;39.60;;;;;;8362629;28;20022;-43
2023/05/06 05:32:55;;;;;;;;;;;22.30;39.60;;;;;;8362121;28;19952;-43
2023/05/06 05:36:59;;;;;;;;;;;22.30;39.50;;;;;;8361629;28;20349;-43
2023/05/06 05:40:59;;;;;;;;;;;22.40;39.60;;;;;;8362223;28;19932;-43
2023/05/06 05:45:00;;;;;;;;;;;22.30;39.60;;;;;;8362114;28;20038;-42
2023/05/06 05:49:00;;;;;;;;;;;22.30;39.60;;;;;;8361558;28;20015;-43
2023/05/06 05:53:00;;;;;;;;;;;22.30;39.60;;;;;;8361909;28;19916;-43
2023/05/06 05:57:01;;;;;;;;;;;22.30;39.70;;;;;;8361780;28;19925;-43
2023/05/06 06:01:02;;;;;;;;;;;22.30;39.70;;;;;;8361604;28;19948;-43
2023/05/06 06:05:03;;;;;;;;;;;22.30;39.70;;;;;;8361819;28;20285;-43
2023/05/06 06:09:04;;;;;;;;;;;22.30;39.70;;;;;;8361631;28;20015;-43
2023/05/06 06:13:04;;;;;;;;;;;22.30;39.70;;;;;;8361148;28;19966;-43
2023/05/06 06:17:05;;;;;;;;;;;22.30;39.70;;;;;;8361749;28;19913;-43
2023/05/06 06:21:05;;;;;;;;;;;22.30;39.70;;;;;;8361685;28;19955;-43
2023/05/06 06:25:06;;;;;;;;;;;22.30;39.80;;;;;;8360990;28;19924;-43
2023/05/06 06:29:07;;;;;;;;;;;22.30;39.70;;;;;;8361574;28;20022;-43
2023/05/06 06:33:07;;;;;;;;;;;22.30;39.80;;;;;;8361436;28;19917;-43
2023/05/06 06:37:09;;;;;;;;;;;22.20;40.30;;;;;;8365836;28;19913;-42
2023/05/06 06:41:09;;;;;;;;;;;22.20;39.80;;;;;;8367587;28;19920;-42
2023/05/06 06:45:10;;;;;;;;;;;22.20;39.80;;;;;;8367115;28;19917;-43
2023/05/06 06:49:11;;;;;;;;;;;22.20;39.80;;;;;;8366667;28;20335;-42
2023/05/06 06:53:11;;;;;;;;;;;22.30;39.90;;;;;;8367000;28;19955;-43
2023/05/06 06:57:11;;;;;;;;;;;22.30;39.80;;;;;;8366896;28;19917;-43
2023/05/06 07:01:12;;;;;;;;;;;22.20;39.80;;;;;;8366634;28;19917;-43
2023/05/06 07:05:12;;;;;;;;;;;22.20;40.30;;;;;;8365093;28;19917;-43
2023/05/06 07:09:13;;;;;;;;;;;22.20;40.60;;;;;;8349752;28;19925;-43
2023/05/06 07:13:13;;;;;;;;;;;22.00;43.00;;;;;;8341481;28;20337;-42
2023/05/06 07:17:14;;;;;;;;;;;21.80;44.20;;;;;;8366603;28;20285;-42
2023/05/06 07:21:14;;;;;;;;;;;21.70;45.20;;;;;;8365910;28;19948;-42
2023/05/06 07:25:15;;;;;;;;;;;21.60;45.50;;;;;;8362238;28;19921;-42
2023/05/06 07:29:15;;;;;;;;;;;21.50;46.10;;;;;;8360410;28;19972;-42
2023/05/06 07:33:16;;;;;;;;;;;21.50;46.40;;;;;;8363298;28;19956;-42
2023/05/06 07:37:16;;;;;;;;;;;21.50;46.40;;;;;;8355061;28;19928;-44
2023/05/06 07:41:17;;;;;;;;;;;21.50;46.40;;;;;;8362986;28;20532;-45
2023/05/06 07:45:18;;;;;;;;;;;21.50;46.70;;;;;;8362404;28;20297;-42
2023/05/06 07:49:18;;;;;;;;;;;21.50;47.00;;;;;;8362316;28;19999;-44
2023/05/06 07:53:19;;;;;;;;;;;21.60;46.80;;;;;;8361375;28;20455;-43
2023/05/06 07:57:19;;;;;;;;;;;21.60;46.90;;;;;;8363732;28;19921;-46
2023/05/06 08:01:20;;;;;;;;;;;21.60;47.80;;;;;;8362279;28;19957;-43
2023/05/06 08:05:20;;;;;;;;;;;21.60;47.30;;;;;;8364263;28;20378;-42
2023/05/06 08:09:21;;;;;;;;;;;21.60;47.10;;;;;;8364255;28;19924;-43
2023/05/06 08:13:21;;;;;;;;;;;21.70;47.80;;;;;;8362611;28;20361;-47
2023/05/06 08:17:22;;;;;;;;;;;21.60;48.00;;;;;;8362099;28;20015;-43
2023/05/06 08:21:22;;;;;;;;;;;21.70;48.20;;;;;;8362662;28;19974;-41
2023/05/06 08:25:22;;;;;;;;;;;21.70;48.10;;;;;;8354732;28;19931;-42
2023/05/06 08:29:23;;;;;;;;;;;21.70;48.40;;;;;;8347409;28;19994;-44
2023/05/06 08:33:23;;;;;;;;;;;21.80;48.90;;;;;;8360845;28;19962;-41
2023/05/06 08:37:24;;;;;;;;;;;21.90;49.60;;;;;;8361571;28;19913;-40
2023/05/06 08:41:25;;;;;;;;;;;21.90;49.40;;;;;;8362715;28;19928;-40
